Aviation Digital Data Service (ADDS)

Output produced by METARs form (1520 UTC 21 July 2017)
found at http://www.aviationweather.gov/adds/metars/
 
KALN 211450Z 21005KT 10SM FEW200 32/25 A3001
KALN 211350Z 24005KT 10SM FEW200 30/25 A3001
KALN 211250Z 24005KT 10SM FEW200 28/25 A3001
KALN 211150Z 29005KT 10SM FEW200 24/24 A3001
KALN 211135Z AUTO 00000KT 7SM CLR 24/24 A3000 RMK AO2 T02370236 TSNO
KALN 211115Z AUTO 00000KT 10SM CLR 24/23 A2999 RMK AO2 T02380234 TSNO
KALN 211055Z AUTO 28003KT 10SM CLR 24/24 A2999 RMK AO2 T02400235 TSNO
KALN 211035Z AUTO 00000KT 7SM CLR 23/23 A2998 RMK AO2 T02340234 TSNO
KALN 211015Z AUTO 00000KT 24/24 A2998 RMK AO2 T02390236 PWINO PNO TSNO
KALN 210955Z AUTO 00000KT 10SM CLR 23/23 A2997 RMK AO2 T02340234 PNO TSNO
KALN 210935Z AUTO 00000KT 10SM CLR 24/23 A2997 RMK AO2 T02360233 TSNO